createdAt,value
2018-06-01T00:00:29.989Z,21.11
2018-06-01T00:01:29.916Z,21.11
2018-06-01T00:02:29.850Z,21.09
2018-06-01T00:03:30.657Z,21.14
2018-06-01T00:04:30.662Z,21.11
2018-06-01T00:05:29.630Z,21.05
2018-06-01T00:06:29.556Z,21.07
2018-06-01T00:07:29.501Z,21.07
2018-06-01T00:08:29.419Z,21.14
2018-06-01T00:09:29.342Z,21.00
2018-06-01T00:10:29.277Z,20.96
2018-06-01T00:11:29.218Z,20.96
2018-06-01T00:12:29.658Z,20.84
2018-06-01T00:13:29.659Z,21.02
2018-06-01T00:14:28.986Z,20.97
2018-06-01T00:15:28.912Z,20.97
2018-06-01T00:16:28.846Z,20.90
2018-06-01T00:17:28.773Z,20.87
2018-06-01T00:18:28.711Z,20.88
2018-06-01T00:19:28.623Z,20.93
2018-06-01T00:20:29.160Z,20.85
2018-06-01T00:21:28.502Z,20.85
2018-06-01T00:22:28.410Z,20.90
2018-06-01T00:23:28.337Z,20.81
2018-06-01T00:24:28.276Z,20.90
2018-06-01T00:25:28.195Z,20.88
2018-06-01T00:26:28.123Z,20.80
2018-06-01T00:27:28.054Z,20.75
2018-06-01T00:28:27.980Z,20.80
2018-06-01T00:29:27.907Z,20.77
2018-06-01T00:30:27.842Z,20.72
2018-06-01T00:31:27.766Z,20.74
2018-06-01T00:32:27.699Z,20.72
2018-06-01T00:33:27.621Z,20.70
2018-06-01T00:34:28.175Z,20.69
2018-06-01T00:35:28.170Z,20.70
2018-06-01T00:36:28.168Z,20.67
2018-06-01T00:37:28.168Z,20.66
2018-06-01T00:38:27.261Z,20.65
2018-06-01T00:39:27.188Z,20.62
2018-06-01T00:40:27.157Z,20.66
2018-06-01T00:41:27.045Z,20.65
2018-06-01T00:42:26.979Z,20.66
2018-06-01T00:43:27.714Z,20.67
2018-06-01T00:44:26.830Z,20.63
2018-06-01T00:45:27.673Z,20.67
2018-06-01T00:46:26.683Z,20.65
2018-06-01T00:47:26.616Z,20.69
2018-06-01T00:48:26.541Z,20.65
2018-06-01T00:49:26.468Z,20.66
2018-06-01T00:50:26.405Z,20.63
2018-06-01T00:51:27.173Z,20.65
2018-06-01T00:52:27.172Z,20.56
2018-06-01T00:53:26.181Z,20.55
2018-06-01T00:54:26.119Z,20.52
2018-06-01T00:55:26.036Z,20.52
2018-06-01T00:56:26.676Z,20.56
2018-06-01T00:57:25.892Z,20.48
2018-06-01T00:58:25.828Z,20.58
2018-06-01T00:59:26.673Z,20.50
2018-06-01T01:00:25.675Z,20.44
2018-06-01T01:01:26.676Z,20.37
2018-06-01T01:02:25.538Z,20.40
2018-06-01T01:03:26.176Z,20.36
2018-06-01T01:04:25.388Z,20.37
2018-06-01T01:05:27.177Z,20.37
2018-06-01T01:06:25.248Z,20.37
2018-06-01T01:07:25.172Z,20.36
2018-06-01T01:08:25.103Z,20.36
2018-06-01T01:09:25.041Z,20.43
2018-06-01T01:10:24.959Z,20.36
2018-06-01T01:11:24.884Z,20.37
2018-06-01T01:12:24.810Z,20.36
2018-06-01T01:13:24.752Z,20.36
2018-06-01T01:14:24.685Z,20.34
2018-06-01T01:15:24.592Z,20.32
2018-06-01T01:16:24.525Z,20.41
2018-06-01T01:17:24.455Z,20.37
2018-06-01T01:18:24.376Z,20.41
2018-06-01T01:19:24.310Z,20.36
2018-06-01T01:20:24.234Z,20.40
2018-06-01T01:21:24.162Z,20.37
2018-06-01T01:22:24.091Z,20.36
2018-06-01T01:23:24.014Z,20.41
2018-06-01T01:24:23.944Z,20.37
2018-06-01T01:25:23.877Z,20.44
2018-06-01T01:26:23.796Z,20.39
2018-06-01T01:27:23.730Z,20.41
2018-06-01T01:28:23.652Z,20.44
2018-06-01T01:29:23.580Z,20.43
2018-06-01T01:30:23.506Z,20.34
2018-06-01T01:31:23.452Z,20.26
2018-06-01T01:32:23.363Z,20.24
2018-06-01T01:33:23.293Z,20.25
2018-06-01T01:34:23.220Z,20.13
2018-06-01T01:35:23.148Z,20.19
2018-06-01T01:36:23.079Z,20.22
2018-06-01T01:37:23.001Z,20.21
2018-06-01T01:38:22.945Z,20.25
2018-06-01T01:39:22.859Z,20.13
2018-06-01T01:40:22.783Z,20.10
2018-06-01T01:41:22.710Z,20.14
2018-06-01T01:42:22.662Z,20.25
2018-06-01T01:43:22.566Z,20.10
2018-06-01T01:44:22.496Z,20.21
2018-06-01T01:45:22.420Z,20.22
2018-06-01T01:46:22.350Z,20.25
2018-06-01T01:47:22.275Z,20.16
2018-06-01T01:48:22.213Z,20.21
2018-06-01T01:49:22.160Z,20.10
2018-06-01T01:50:22.060Z,20.24
2018-06-01T01:51:21.987Z,20.22
2018-06-01T01:52:21.922Z,20.13
2018-06-01T01:53:21.839Z,20.18
2018-06-01T01:54:21.781Z,20.09
2018-06-01T01:55:21.696Z,20.09
2018-06-01T01:56:21.621Z,20.19
2018-06-01T01:57:21.561Z,20.02
2018-06-01T01:58:21.481Z,20.09
2018-06-01T01:59:21.406Z,20.03
2018-06-01T02:00:21.345Z,20.07
2018-06-01T02:01:21.261Z,20.02
2018-06-01T02:02:21.193Z,20.03
2018-06-01T02:03:21.115Z,19.99
2018-06-01T02:04:21.042Z,19.95
2018-06-01T02:05:20.969Z,20.00
2018-06-01T02:06:20.909Z,19.99
2018-06-01T02:07:20.826Z,19.99
2018-06-01T02:08:20.766Z,20.00
2018-06-01T02:09:20.683Z,19.91
2018-06-01T02:10:20.609Z,19.88
2018-06-01T02:11:20.533Z,19.94
2018-06-01T02:12:20.466Z,19.94
2018-06-01T02:13:20.387Z,19.96
2018-06-01T02:14:20.314Z,19.89
2018-06-01T02:15:20.243Z,19.89
2018-06-01T02:16:20.177Z,19.94
2018-06-01T02:17:20.102Z,19.94
2018-06-01T02:18:20.024Z,19.94
2018-06-01T02:19:19.962Z,19.91
2018-06-01T02:20:19.896Z,19.84
2018-06-01T02:21:19.805Z,19.91
2018-06-01T02:22:19.733Z,19.88
2018-06-01T02:23:19.675Z,19.95
2018-06-01T02:24:19.595Z,19.94
2018-06-01T02:25:19.515Z,19.95
2018-06-01T02:26:19.442Z,19.96
2018-06-01T02:27:19.381Z,19.94
2018-06-01T02:28:19.302Z,19.95
2018-06-01T02:29:19.229Z,19.92
2018-06-01T02:30:19.153Z,19.88
2018-06-01T02:31:19.078Z,20.02
2018-06-01T02:32:19.015Z,20.04
2018-06-01T02:33:19.003Z,20.02
2018-06-01T02:34:18.875Z,19.94
2018-06-01T02:35:18.799Z,19.99
2018-06-01T02:36:18.714Z,19.99
2018-06-01T02:37:18.640Z,19.99
2018-06-01T02:38:18.573Z,19.99
2018-06-01T02:39:18.498Z,19.96
2018-06-01T02:40:18.425Z,19.94
2018-06-01T02:41:18.374Z,20.02
2018-06-01T02:42:18.283Z,20.02
2018-06-01T02:43:18.208Z,19.96
2018-06-01T02:44:18.134Z,20.06
2018-06-01T02:45:18.062Z,20.03
2018-06-01T02:46:17.988Z,20.04
2018-06-01T02:47:17.927Z,20.07
2018-06-01T02:48:17.843Z,20.09
2018-06-01T02:49:17.770Z,20.09
2018-06-01T02:50:17.700Z,20.04
2018-06-01T02:51:17.627Z,20.07
2018-06-01T02:52:17.563Z,20.10
2018-06-01T02:53:17.487Z,20.04
2018-06-01T02:54:17.411Z,20.06
2018-06-01T02:55:17.336Z,20.04
2018-06-01T02:56:17.277Z,20.00
2018-06-01T02:57:17.190Z,20.07
2018-06-01T02:58:17.116Z,20.10
2018-06-01T02:59:17.048Z,20.10
2018-06-01T03:00:16.984Z,20.11
2018-06-01T03:01:16.896Z,20.07
2018-06-01T03:02:16.838Z,20.03
2018-06-01T03:03:16.754Z,20.09
2018-06-01T03:04:16.681Z,20.07
2018-06-01T03:05:16.617Z,20.03
2018-06-01T03:06:16.534Z,20.10
2018-06-01T03:07:16.465Z,20.02
2018-06-01T03:08:16.401Z,20.07
2018-06-01T03:09:16.320Z,20.10
2018-06-01T03:10:16.248Z,20.03
2018-06-01T03:11:16.195Z,20.03
2018-06-01T03:12:16.108Z,20.02
2018-06-01T03:13:16.025Z,20.07
2018-06-01T03:14:15.953Z,20.00
2018-06-01T03:15:15.883Z,20.06
2018-06-01T03:16:15.810Z,20.07
2018-06-01T03:17:15.742Z,20.03
2018-06-01T03:18:15.663Z,20.09
2018-06-01T03:19:15.591Z,20.10
2018-06-01T03:20:15.519Z,20.10
2018-06-01T03:21:15.444Z,20.09
2018-06-01T03:22:15.378Z,20.07
2018-06-01T03:23:15.310Z,20.13
2018-06-01T03:24:15.230Z,20.18
2018-06-01T03:25:15.154Z,20.14
2018-06-01T03:26:15.142Z,20.19
2018-06-01T03:27:15.014Z,20.13
2018-06-01T03:28:14.939Z,20.14
2018-06-01T03:29:14.868Z,20.26
2018-06-01T03:30:14.800Z,20.21
2018-06-01T03:31:14.770Z,20.24
2018-06-01T03:32:14.651Z,20.29
2018-06-01T03:33:14.574Z,20.21
2018-06-01T03:34:14.506Z,20.21
2018-06-01T03:35:14.431Z,20.26
2018-06-01T03:36:14.369Z,20.25
2018-06-01T03:37:14.285Z,20.22
2018-06-01T03:38:14.217Z,20.21
2018-06-01T03:39:14.141Z,20.25
2018-06-01T03:40:14.073Z,20.22
2018-06-01T03:41:13.995Z,20.34
2018-06-01T03:42:13.927Z,20.34
2018-06-01T03:43:13.850Z,20.29
2018-06-01T03:44:13.784Z,20.21
2018-06-01T03:45:13.707Z,20.32
2018-06-01T03:46:13.639Z,20.26
2018-06-01T03:47:13.563Z,20.21
2018-06-01T03:48:13.489Z,20.36
2018-06-01T03:49:13.430Z,20.32
2018-06-01T03:50:13.346Z,20.24
2018-06-01T03:51:13.272Z,20.37
2018-06-01T03:52:13.202Z,20.34
2018-06-01T03:53:13.130Z,20.41
2018-06-01T03:54:13.068Z,20.34
2018-06-01T03:55:12.988Z,20.39
2018-06-01T03:56:12.912Z,20.41
2018-06-01T03:57:12.838Z,20.37
2018-06-01T03:58:12.768Z,20.37
2018-06-01T03:59:12.696Z,20.41
2018-06-01T04:00:12.628Z,20.39
2018-06-01T04:01:12.550Z,20.39
2018-06-01T04:02:12.481Z,20.21
2018-06-01T04:03:12.406Z,20.29
2018-06-01T04:04:12.334Z,20.24
2018-06-01T04:05:12.259Z,20.21
2018-06-01T04:06:12.195Z,20.29
2018-06-01T04:07:12.116Z,20.24
2018-06-01T04:08:12.042Z,20.24
2018-06-01T04:09:11.971Z,20.37
2018-06-01T04:10:11.898Z,20.26
2018-06-01T04:11:11.825Z,20.22
2018-06-01T04:12:11.761Z,20.29
2018-06-01T04:13:11.680Z,20.22
2018-06-01T04:14:11.610Z,20.21
2018-06-01T04:15:11.539Z,20.31
2018-06-01T04:16:11.470Z,20.25
2018-06-01T04:17:11.394Z,20.31
2018-06-01T04:18:11.327Z,20.28
2018-06-01T04:19:11.246Z,20.29
2018-06-01T04:20:11.174Z,20.21
2018-06-01T04:21:11.100Z,20.24
2018-06-01T04:22:11.034Z,20.24
2018-06-01T04:23:10.956Z,20.34
2018-06-01T04:24:10.890Z,20.21
2018-06-01T04:25:10.813Z,20.26
2018-06-01T04:26:10.739Z,20.25
2018-06-01T04:27:10.667Z,20.26
2018-06-01T04:28:10.598Z,20.26
2018-06-01T04:29:10.541Z,20.21
2018-06-01T04:30:10.462Z,20.25
2018-06-01T04:31:10.377Z,20.31
2018-06-01T04:32:10.306Z,20.25
2018-06-01T04:33:10.231Z,20.22
2018-06-01T04:34:10.161Z,20.26
2018-06-01T04:35:10.095Z,20.39
2018-06-01T04:36:10.035Z,20.22
2018-06-01T04:37:09.947Z,20.21
2018-06-01T04:38:09.874Z,20.40
2018-06-01T04:39:09.802Z,20.25
2018-06-01T04:40:09.725Z,20.22
2018-06-01T04:41:09.654Z,20.36
2018-06-01T04:42:09.591Z,20.32
2018-06-01T04:43:09.624Z,20.22
2018-06-01T04:44:09.438Z,20.39
2018-06-01T04:45:09.366Z,20.37
2018-06-01T04:46:09.295Z,20.24
2018-06-01T04:47:09.234Z,20.40
2018-06-01T04:48:09.147Z,20.36
2018-06-01T04:49:09.081Z,20.40
2018-06-01T04:50:09.007Z,20.34
2018-06-01T04:51:08.932Z,20.25
2018-06-01T04:52:08.864Z,20.24
2018-06-01T04:53:08.792Z,20.37
2018-06-01T04:54:08.715Z,20.40
2018-06-01T04:55:08.642Z,20.34
2018-06-01T04:56:08.580Z,20.41
2018-06-01T04:57:08.496Z,20.36
2018-06-01T04:58:08.424Z,20.32
2018-06-01T04:59:08.356Z,20.36
2018-06-01T05:00:08.281Z,20.36
2018-06-01T05:01:08.207Z,20.36
2018-06-01T05:02:08.133Z,20.32
2018-06-01T05:03:08.072Z,20.34
2018-06-01T05:04:07.995Z,20.41
2018-06-01T05:05:07.929Z,20.22
2018-06-01T05:06:07.848Z,20.34
2018-06-01T05:07:07.776Z,20.19
2018-06-01T05:08:07.702Z,20.14
2018-06-01T05:09:07.632Z,20.22
2018-06-01T05:10:07.556Z,20.18
2018-06-01T05:11:07.493Z,20.21
2018-06-01T05:12:07.414Z,20.18
2018-06-01T05:13:07.341Z,20.09
2018-06-01T05:14:07.268Z,20.07
2018-06-01T05:15:07.195Z,20.09
2018-06-01T05:16:07.126Z,20.04
2018-06-01T05:17:07.059Z,20.04
2018-06-01T05:18:06.981Z,20.19
2018-06-01T05:19:06.907Z,20.11
2018-06-01T05:20:06.834Z,20.22
2018-06-01T05:21:06.759Z,20.14
2018-06-01T05:22:06.688Z,20.13
2018-06-01T05:23:06.625Z,20.14
2018-06-01T05:24:06.546Z,20.24
2018-06-01T05:25:06.469Z,20.07
2018-06-01T05:26:06.402Z,20.06
2018-06-01T05:27:06.329Z,20.09
2018-06-01T05:28:06.256Z,20.07
2018-06-01T05:29:06.185Z,19.99
2018-06-01T05:30:06.108Z,19.92
2018-06-01T05:31:06.039Z,19.92
2018-06-01T05:32:05.963Z,19.92
2018-06-01T05:33:05.898Z,20.04
2018-06-01T05:34:05.821Z,20.04
2018-06-01T05:35:05.801Z,20.10
2018-06-01T05:36:05.679Z,20.11
2018-06-01T05:37:05.601Z,20.16
2018-06-01T05:38:05.527Z,20.19
2018-06-01T05:39:05.455Z,20.22
2018-06-01T05:40:05.384Z,20.32
2018-06-01T05:41:05.321Z,20.34
2018-06-01T05:42:05.239Z,20.34
2018-06-01T05:43:05.165Z,20.43
2018-06-01T05:44:05.096Z,20.55
2018-06-01T05:45:05.024Z,20.55
2018-06-01T05:46:04.948Z,20.60
2018-06-01T05:47:04.884Z,20.60
2018-06-01T05:48:04.808Z,20.52
2018-06-01T05:49:04.730Z,20.58
2018-06-01T05:50:04.660Z,20.56
2018-06-01T05:51:04.590Z,20.69
2018-06-01T05:52:04.519Z,20.67
2018-06-01T05:53:04.449Z,20.74
2018-06-01T05:54:04.372Z,20.72
2018-06-01T05:55:04.304Z,20.75
2018-06-01T05:56:04.233Z,20.63
2018-06-01T05:57:04.157Z,20.67
2018-06-01T05:58:04.089Z,20.65
2018-06-01T05:59:04.011Z,20.72
2018-06-01T06:00:03.946Z,20.74
2018-06-01T06:01:03.869Z,20.78
2018-06-01T06:02:03.795Z,20.75
2018-06-01T06:03:03.724Z,20.80
2018-06-01T06:04:03.650Z,20.92
2018-06-01T06:05:03.580Z,20.84
2018-06-01T06:06:03.512Z,20.93
2018-06-01T06:07:03.439Z,20.95
2018-06-01T06:08:03.367Z,20.95
2018-06-01T06:09:03.293Z,21.00
2018-06-01T06:10:03.219Z,20.92
2018-06-01T06:11:03.147Z,20.90
2018-06-01T06:12:03.086Z,20.90
2018-06-01T06:13:03.012Z,20.77
2018-06-01T06:14:02.933Z,20.67
2018-06-01T06:15:02.866Z,20.69
2018-06-01T06:16:02.791Z,20.72
2018-06-01T06:17:02.716Z,20.67
2018-06-01T06:18:02.651Z,20.65
2018-06-01T06:19:02.577Z,20.65
2018-06-01T06:20:02.513Z,20.63
2018-06-01T06:21:02.432Z,20.74
2018-06-01T06:22:02.387Z,20.67
2018-06-01T06:23:02.291Z,20.75
2018-06-01T06:24:02.221Z,20.77
2018-06-01T06:25:02.142Z,20.88
2018-06-01T06:26:02.076Z,20.92
2018-06-01T06:27:02.002Z,20.81
2018-06-01T06:28:01.933Z,20.84
2018-06-01T06:29:01.858Z,20.78
2018-06-01T06:30:01.789Z,20.84
2018-06-01T06:31:01.715Z,20.87
2018-06-01T06:32:01.638Z,20.92
2018-06-01T06:33:01.574Z,20.81
2018-06-01T06:34:01.496Z,20.93
2018-06-01T06:35:01.432Z,20.88
2018-06-01T06:36:01.358Z,20.85
2018-06-01T06:37:01.281Z,20.80
2018-06-01T06:38:01.243Z,20.87
2018-06-01T06:39:01.140Z,20.84
2018-06-01T06:40:01.069Z,20.84
2018-06-01T06:41:00.999Z,20.82
2018-06-01T06:42:00.941Z,20.85
2018-06-01T06:43:00.849Z,20.85
2018-06-01T06:44:00.780Z,21.00
2018-06-01T06:45:00.711Z,20.99
2018-06-01T06:46:00.633Z,20.96
2018-06-01T06:47:00.567Z,20.97
2018-06-01T06:48:00.498Z,20.96
2018-06-01T06:49:00.426Z,21.02
2018-06-01T06:50:00.345Z,21.03
2018-06-01T06:51:00.278Z,20.96
2018-06-01T06:52:00.206Z,21.09
2018-06-01T06:53:00.137Z,21.14
2018-06-01T06:54:00.069Z,21.21
2018-06-01T06:54:59.995Z,21.29
2018-06-01T06:55:59.923Z,21.33
2018-06-01T06:56:59.847Z,21.27
2018-06-01T06:57:59.776Z,21.27
2018-06-01T06:58:59.708Z,21.27
2018-06-01T06:59:59.648Z,21.35
2018-06-01T07:00:59.568Z,21.45
2018-06-01T07:01:59.492Z,21.50
2018-06-01T07:02:59.417Z,21.54
2018-06-01T07:03:59.348Z,21.51
2018-06-01T07:04:59.275Z,21.43
2018-06-01T07:05:59.204Z,21.50
2018-06-01T07:06:59.140Z,21.39
2018-06-01T07:07:59.069Z,21.22
2018-06-01T07:08:58.987Z,21.27
2018-06-01T07:09:58.920Z,21.25
2018-06-01T07:10:58.847Z,21.25
2018-06-01T07:11:58.777Z,21.25
2018-06-01T07:12:58.706Z,21.29
2018-06-01T07:13:58.642Z,21.32
2018-06-01T07:14:58.561Z,21.27
2018-06-01T07:15:58.495Z,21.22
2018-06-01T07:16:58.425Z,20.97
2018-06-01T07:17:58.352Z,20.96
2018-06-01T07:18:58.277Z,21.06
2018-06-01T07:19:58.230Z,21.03
2018-06-01T07:20:58.137Z,21.06
2018-06-01T07:21:58.061Z,21.17
2018-06-01T07:22:57.991Z,21.27
2018-06-01T07:23:57.924Z,21.24
2018-06-01T07:24:57.847Z,21.22
2018-06-01T07:25:57.780Z,21.27
2018-06-01T07:26:57.705Z,21.27
2018-06-01T07:27:57.633Z,21.29
2018-06-01T07:28:57.567Z,21.43
2018-06-01T07:29:57.491Z,21.39
2018-06-01T07:30:57.418Z,21.55
2018-06-01T07:31:57.354Z,21.45
2018-06-01T07:32:57.277Z,21.51
2018-06-01T07:33:57.210Z,21.60
2018-06-01T07:34:57.132Z,21.52
2018-06-01T07:35:57.062Z,21.61
2018-06-01T07:36:56.998Z,21.61
2018-06-01T07:37:56.927Z,21.62
2018-06-01T07:38:56.854Z,21.67
2018-06-01T07:39:56.779Z,21.52
2018-06-01T07:40:56.709Z,21.51
2018-06-01T07:41:56.642Z,21.58
2018-06-01T07:42:56.574Z,21.50
2018-06-01T07:43:56.500Z,21.51
2018-06-01T07:44:56.422Z,21.52
2018-06-01T07:45:56.351Z,21.52
2018-06-01T07:46:56.322Z,21.51
2018-06-01T07:47:56.209Z,21.51
2018-06-01T07:48:56.143Z,21.54
2018-06-01T07:49:56.067Z,21.51
2018-06-01T07:50:55.995Z,21.64
2018-06-01T07:51:55.924Z,21.66
2018-06-01T07:52:55.852Z,21.67
2018-06-01T07:53:55.784Z,21.76
2018-06-01T07:54:55.726Z,21.73
2018-06-01T07:55:55.652Z,21.69
2018-06-01T07:56:55.571Z,21.75
2018-06-01T07:57:55.497Z,21.73
2018-06-01T07:58:55.431Z,21.73
2018-06-01T07:59:55.357Z,21.83
2018-06-01T08:00:55.296Z,21.82
2018-06-01T08:01:55.214Z,21.82
2018-06-01T08:02:55.143Z,21.98
2018-06-01T08:03:55.071Z,22.02
2018-06-01T08:04:54.999Z,21.95
2018-06-01T08:05:54.931Z,21.96
2018-06-01T08:06:54.876Z,21.96
2018-06-01T08:07:54.791Z,21.95
2018-06-01T08:08:54.718Z,21.92
2018-06-01T08:09:54.652Z,21.79
2018-06-01T08:10:54.576Z,21.80
2018-06-01T08:11:54.511Z,21.80
2018-06-01T08:12:54.439Z,21.82
2018-06-01T08:13:54.368Z,21.89
2018-06-01T08:14:54.293Z,21.89
2018-06-01T08:15:54.246Z,21.80
2018-06-01T08:16:54.151Z,21.82
2018-06-01T08:17:54.081Z,21.73
2018-06-01T08:18:54.021Z,21.82
2018-06-01T08:19:53.942Z,21.77
2018-06-01T08:20:53.875Z,21.82
2018-06-01T08:21:53.801Z,21.73
2018-06-01T08:22:53.727Z,21.77
2018-06-01T08:23:53.657Z,21.75
2018-06-01T08:24:53.596Z,21.85
2018-06-01T08:25:53.515Z,21.85
2018-06-01T08:26:53.457Z,21.85
2018-06-01T08:27:53.379Z,21.93
2018-06-01T08:28:53.901Z,21.93
2018-06-01T08:29:53.232Z,21.92
2018-06-01T08:30:53.165Z,21.99
2018-06-01T08:31:53.100Z,22.07
2018-06-01T08:32:53.023Z,22.10
2018-06-01T08:33:52.948Z,22.08
2018-06-01T08:34:52.880Z,22.13
2018-06-01T08:35:52.807Z,22.17
2018-06-01T08:36:52.745Z,22.25
2018-06-01T08:37:52.664Z,22.28
2018-06-01T08:38:52.596Z,22.17
2018-06-01T08:39:52.523Z,22.25
2018-06-01T08:40:52.452Z,22.25
2018-06-01T08:41:52.381Z,22.26
2018-06-01T08:42:52.320Z,22.17
2018-06-01T08:43:52.243Z,22.18
2018-06-01T08:44:52.172Z,22.22
2018-06-01T08:45:52.101Z,22.29
2018-06-01T08:46:52.029Z,22.36
2018-06-01T08:47:51.958Z,22.33
2018-06-01T08:48:51.930Z,22.32
2018-06-01T08:49:51.819Z,22.25
2018-06-01T08:50:51.746Z,22.25
2018-06-01T08:51:51.679Z,22.28
2018-06-01T08:52:51.606Z,22.41
2018-06-01T08:53:51.534Z,22.32
2018-06-01T08:54:51.475Z,22.30
2018-06-01T08:55:51.396Z,22.30
2018-06-01T08:56:51.327Z,22.35
2018-06-01T08:57:51.256Z,22.33
2018-06-01T08:58:51.200Z,22.41
2018-06-01T08:59:51.119Z,22.32
2018-06-01T09:00:51.057Z,22.32
2018-06-01T09:01:50.973Z,22.33
2018-06-01T09:02:50.901Z,22.30
2018-06-01T09:03:50.842Z,22.28
2018-06-01T09:04:50.771Z,22.23
2018-06-01T09:05:50.691Z,22.14
2018-06-01T09:06:50.627Z,22.11
2018-06-01T09:07:50.552Z,21.73
2018-06-01T09:08:50.485Z,21.66
2018-06-01T09:09:50.413Z,21.69
2018-06-01T09:10:50.339Z,21.72
2018-06-01T09:11:50.289Z,21.73
2018-06-01T09:12:50.211Z,21.51
2018-06-01T09:13:50.131Z,21.37
2018-06-01T09:14:50.058Z,21.33
2018-06-01T09:15:49.988Z,21.36
2018-06-01T09:16:49.977Z,21.45
2018-06-01T09:17:49.846Z,21.52
2018-06-01T09:18:49.782Z,21.55
2018-06-01T09:19:49.704Z,21.66
2018-06-01T09:20:49.635Z,21.62
2018-06-01T09:21:49.570Z,21.61
2018-06-01T09:22:49.569Z,21.73
2018-06-01T09:23:49.421Z,21.75
2018-06-01T09:24:49.362Z,21.75
2018-06-01T09:25:49.278Z,21.70
2018-06-01T09:26:49.208Z,21.70
2018-06-01T09:27:49.137Z,21.64
2018-06-01T09:28:49.065Z,21.57
2018-06-01T09:29:48.998Z,21.60
2018-06-01T09:30:48.935Z,21.66
2018-06-01T09:31:48.861Z,21.67
2018-06-01T09:32:48.782Z,21.67
2018-06-01T09:33:48.717Z,21.76
2018-06-01T09:34:48.640Z,21.73
2018-06-01T09:35:48.570Z,21.76
2018-06-01T09:36:48.501Z,21.80
2018-06-01T09:37:48.430Z,21.80
2018-06-01T09:38:48.366Z,21.88
2018-06-01T09:39:48.286Z,21.88
2018-06-01T09:40:48.221Z,22.06
2018-06-01T09:41:48.144Z,22.14
2018-06-01T09:42:48.078Z,22.14
2018-06-01T09:43:48.002Z,22.18
2018-06-01T09:44:47.936Z,22.14
2018-06-01T09:45:47.861Z,22.15
2018-06-01T09:46:47.816Z,22.20
2018-06-01T09:47:47.718Z,22.20
2018-06-01T09:48:47.651Z,22.32
2018-06-01T09:49:47.585Z,22.26
2018-06-01T09:50:47.517Z,22.14
2018-06-01T09:51:47.436Z,22.14
2018-06-01T09:52:47.366Z,22.29
2018-06-01T09:53:47.298Z,22.32
2018-06-01T09:54:47.225Z,22.38
2018-06-01T09:55:47.162Z,22.44
2018-06-01T09:56:47.093Z,22.55
2018-06-01T09:57:47.017Z,22.66
2018-06-01T09:58:46.945Z,22.70
2018-06-01T09:59:46.876Z,22.81
2018-06-01T10:00:46.864Z,22.76
2018-06-01T10:01:46.750Z,22.85
2018-06-01T10:02:46.755Z,22.99
2018-06-01T10:03:46.590Z,23.06
2018-06-01T10:04:46.518Z,23.02
2018-06-01T10:05:46.458Z,22.94
2018-06-01T10:06:46.381Z,22.98
2018-06-01T10:07:46.310Z,22.78
2018-06-01T10:08:46.244Z,22.99
2018-06-01T10:09:46.177Z,23.02
2018-06-01T10:10:46.102Z,23.23
2018-06-01T10:11:46.033Z,23.17
2018-06-01T10:12:46.041Z,23.31
2018-06-01T10:13:45.897Z,23.37
2018-06-01T10:14:45.831Z,23.06
2018-06-01T10:15:45.753Z,23.09
2018-06-01T10:16:45.685Z,23.03
2018-06-01T10:17:45.616Z,23.09
2018-06-01T10:18:45.551Z,23.06
2018-06-01T10:19:45.474Z,22.98
2018-06-01T10:20:45.411Z,23.08
2018-06-01T10:21:45.337Z,22.98
2018-06-01T10:22:45.283Z,22.75
2018-06-01T10:23:45.196Z,22.73
2018-06-01T10:24:45.128Z,22.69
2018-06-01T10:25:45.067Z,22.68
2018-06-01T10:26:45.000Z,22.59
2018-06-01T10:27:44.921Z,22.69
2018-06-01T10:28:44.848Z,22.70
2018-06-01T10:29:44.780Z,22.76
2018-06-01T10:30:44.713Z,22.91
2018-06-01T10:31:44.641Z,22.99
2018-06-01T10:32:44.577Z,22.87
2018-06-01T10:33:44.499Z,22.87
2018-06-01T10:34:44.431Z,22.84
2018-06-01T10:35:44.360Z,22.75
2018-06-01T10:36:44.290Z,22.83
2018-06-01T10:37:44.223Z,22.80
2018-06-01T10:38:44.161Z,22.66
2018-06-01T10:39:44.104Z,22.60
2018-06-01T10:40:44.013Z,22.38
2018-06-01T10:41:43.941Z,22.44
2018-06-01T10:42:43.876Z,22.38
2018-06-01T10:43:43.802Z,22.51
2018-06-01T10:44:43.735Z,22.65
2018-06-01T10:45:43.661Z,22.65
2018-06-01T10:46:43.591Z,22.80
2018-06-01T10:47:43.521Z,22.80
2018-06-01T10:48:43.452Z,22.90
2018-06-01T10:49:43.381Z,22.96
2018-06-01T10:50:43.327Z,22.99
2018-06-01T10:51:43.241Z,22.83
2018-06-01T10:52:43.172Z,22.80
2018-06-01T10:53:43.103Z,22.83
2018-06-01T10:54:43.074Z,22.80
2018-06-01T10:55:42.964Z,22.80
2018-06-01T10:56:42.903Z,22.73
2018-06-01T10:57:42.822Z,22.85
2018-06-01T10:58:42.753Z,22.84
2018-06-01T10:59:42.682Z,22.81
2018-06-01T11:00:42.614Z,22.75
2018-06-01T11:01:42.551Z,22.85
2018-06-01T11:02:42.483Z,22.98
2018-06-01T11:03:42.409Z,22.96
2018-06-01T11:04:42.370Z,22.96
2018-06-01T11:05:42.264Z,23.06
2018-06-01T11:06:42.197Z,23.13
2018-06-01T11:07:42.135Z,23.08
2018-06-01T11:08:42.057Z,23.13
2018-06-01T11:09:41.984Z,23.00
2018-06-01T11:10:41.918Z,22.90
2018-06-01T11:11:41.844Z,22.96
2018-06-01T11:12:41.776Z,22.91
2018-06-01T11:13:41.739Z,23.05
2018-06-01T11:14:41.638Z,23.21
2018-06-01T11:15:41.570Z,23.37
2018-06-01T11:16:41.510Z,23.50
2018-06-01T11:17:41.428Z,23.73
2018-06-01T11:18:41.364Z,23.84
2018-06-01T11:19:41.299Z,23.92
2018-06-01T11:20:41.218Z,23.91
2018-06-01T11:21:41.150Z,23.92
2018-06-01T11:22:41.081Z,24.06
2018-06-01T11:23:41.013Z,24.17
2018-06-01T11:24:40.947Z,24.18
2018-06-01T11:25:40.880Z,24.20
2018-06-01T11:26:40.808Z,24.11
2018-06-01T11:27:40.739Z,24.11
2018-06-01T11:28:40.671Z,23.99
2018-06-01T11:29:40.597Z,23.87
2018-06-01T11:30:40.531Z,23.77
2018-06-01T11:31:40.471Z,23.46
2018-06-01T11:32:40.400Z,23.32
2018-06-01T11:33:40.322Z,23.43
2018-06-01T11:34:40.254Z,23.48
2018-06-01T11:35:40.190Z,23.58
2018-06-01T11:36:40.114Z,23.63
2018-06-01T11:37:40.056Z,23.69
2018-06-01T11:38:39.980Z,23.84
2018-06-01T11:39:39.923Z,23.84
2018-06-01T11:40:39.842Z,24.01
2018-06-01T11:41:39.771Z,24.03
2018-06-01T11:42:39.703Z,23.81
2018-06-01T11:43:39.647Z,23.78
2018-06-01T11:44:39.566Z,23.95
2018-06-01T11:45:39.500Z,23.98
2018-06-01T11:46:39.426Z,24.24
2018-06-01T11:47:39.360Z,24.36
2018-06-01T11:48:39.298Z,24.51
2018-06-01T11:49:39.223Z,24.68
2018-06-01T11:50:39.153Z,24.85
2018-06-01T11:51:39.093Z,24.77
2018-06-01T11:52:39.014Z,24.69
2018-06-01T11:53:38.951Z,24.63
2018-06-01T11:54:38.888Z,24.61
2018-06-01T11:55:38.810Z,24.61
2018-06-01T11:56:38.740Z,24.69
2018-06-01T11:57:38.674Z,24.74
2018-06-01T11:58:38.609Z,24.80
2018-06-01T11:59:38.541Z,24.89
2018-06-01T12:00:38.471Z,24.86
2018-06-01T12:01:38.439Z,25.08
2018-06-01T12:02:38.334Z,25.17
2018-06-01T12:03:38.265Z,25.17
2018-06-01T12:04:38.196Z,25.28
2018-06-01T12:05:38.130Z,25.33
2018-06-01T12:06:38.065Z,25.53
2018-06-01T12:07:37.992Z,25.69
2018-06-01T12:08:37.927Z,25.63
2018-06-01T12:09:37.859Z,25.36
2018-06-01T12:10:37.801Z,25.28
2018-06-01T12:11:37.722Z,25.25
2018-06-01T12:12:37.659Z,25.18
2018-06-01T12:13:37.590Z,25.13
2018-06-01T12:14:37.519Z,25.01
2018-06-01T12:15:37.452Z,24.81
2018-06-01T12:16:37.383Z,24.93
2018-06-01T12:17:37.382Z,25.06
2018-06-01T12:18:37.255Z,24.91
2018-06-01T12:19:37.188Z,24.69
2018-06-01T12:20:37.118Z,24.66
2018-06-01T12:21:37.044Z,24.60
2018-06-01T12:22:36.994Z,24.74
2018-06-01T12:23:36.911Z,24.73
2018-06-01T12:24:36.851Z,24.89
2018-06-01T12:25:36.775Z,24.96
2018-06-01T12:26:36.706Z,25.11
2018-06-01T12:27:36.639Z,25.18
2018-06-01T12:28:36.571Z,25.31
2018-06-01T12:29:36.502Z,25.40
2018-06-01T12:30:36.443Z,25.32
2018-06-01T12:31:36.368Z,25.23
2018-06-01T12:32:36.306Z,25.36
2018-06-01T12:33:36.232Z,25.38
2018-06-01T12:34:36.166Z,25.60
2018-06-01T12:35:36.102Z,25.77
2018-06-01T12:36:36.031Z,25.90
2018-06-01T12:37:36.003Z,26.05
2018-06-01T12:38:35.895Z,26.23
2018-06-01T12:39:35.826Z,26.15
2018-06-01T12:40:35.768Z,26.28
2018-06-01T12:41:35.691Z,26.34
2018-06-01T12:42:35.631Z,26.43
2018-06-01T12:43:35.556Z,26.58
2018-06-01T12:44:35.493Z,26.63
2018-06-01T12:45:35.420Z,26.59
2018-06-01T12:46:35.365Z,26.68
2018-06-01T12:47:35.288Z,26.55
2018-06-01T12:48:35.232Z,26.62
2018-06-01T12:49:35.154Z,26.59
2018-06-01T12:50:35.087Z,26.70
2018-06-01T12:51:35.020Z,26.89